Weather at Trevelin Airport

Public forecast

Using degrees Celsius for public forecast. Weather courtesy of forecast.io.

Closest aviation weather report (METAR) to Trevelin Airport

Closest report is FutaleufĂș Airport, 17.4 nm (32.2 km) WSW. Retrieved 2021/07/24 23:00 UTC (35 minutes ago):

SCFT 242300Z AUTO VRB02KT 9999 OVC130/// 01/M00 Q1014

Closest aviation forecast (TAF) to Trevelin Airport

Forecast is more than 12 hours old.

Closest forecast is Brigadier Antonio Parodi Airport, 18.4 nm (34.1 km) NE. Retrieved 2021-06-01 00:20 UTC (2 months ago):

TAF SAVE 022300Z 0300/0324 VRB03KT 9999 SCT030 TX21/0320Z TN06/0310Z PROB40 TEMPO 0306/0311 3000 BR SCT015 BECMG 0315/0317 CAVOK